Time;durP1;ratioP1;P1;durP2;ratioP2;P2;SDS_P1;SDS_P2;PMS_P1;PMS_P2;Temp;Humidity;BMP_temperature;BMP_pressure;BME280_temperature;BME280_humidity;BME280_pressure;Samples;Min_cycle;Max_cycle;Signal;HPM_P1;HPM_P2
2021/09/28 00:00:39;;;;;;;24.60;22.10;;;20.60;75.50;;;;;;5105183;28;20082;-71
2021/09/28 00:03:05;;;;;;;26.42;19.98;;;20.60;75.50;;;;;;5112663;28;20477;-72
2021/09/28 00:05:31;;;;;;;22.80;20.50;;;20.60;75.40;;;;;;5111487;28;20058;-71
2021/09/28 00:07:57;;;;;;;23.05;20.65;;;20.60;75.30;;;;;;5111384;28;20023;-73
2021/09/28 00:10:23;;;;;;;23.15;20.52;;;20.60;75.30;;;;;;5111783;28;20073;-71
2021/09/28 00:12:49;;;;;;;24.85;21.45;;;20.60;75.20;;;;;;5111446;28;20114;-72
2021/09/28 00:15:16;;;;;;;21.17;18.15;;;20.60;75.20;;;;;;5110270;28;20043;-74
2021/09/28 00:17:42;;;;;;;22.17;19.83;;;20.60;75.10;;;;;;5111600;27;20028;-73
2021/09/28 00:20:09;;;;;;;20.70;17.77;;;20.60;74.90;;;;;;5114166;27;20731;-71
2021/09/28 00:22:36;;;;;;;20.48;17.52;;;20.60;74.80;;;;;;5112848;27;20077;-70
2021/09/28 00:25:05;;;;;;;19.35;17.38;;;20.60;74.70;;;;;;5115449;27;20076;-71
2021/09/28 00:27:31;;;;;;;18.63;16.08;;;20.70;74.70;;;;;;5113835;27;20047;-71
2021/09/28 00:29:58;;;;;;;19.75;17.73;;;20.70;74.50;;;;;;5113908;27;20047;-71
2021/09/28 00:32:25;;;;;;;20.50;18.33;;;20.70;74.50;;;;;;5115067;27;20059;-72
2021/09/28 00:34:51;;;;;;;19.13;16.45;;;20.80;74.50;;;;;;5111748;27;20516;-70
2021/09/28 00:37:17;;;;;;;17.70;15.88;;;20.80;74.30;;;;;;5113806;27;20027;-71
2021/09/28 00:39:43;;;;;;;18.23;16.45;;;20.80;74.10;;;;;;5110974;28;20055;-71
2021/09/28 00:42:09;;;;;;;17.83;16.02;;;20.80;74.10;;;;;;5113624;27;20058;-71
2021/09/28 00:44:37;;;;;;;17.52;15.80;;;20.80;74.50;;;;;;5115287;27;20020;-71
2021/09/28 00:47:05;;;;;;;17.08;15.30;;;20.80;73.80;;;;;;5112620;27;20019;-72
2021/09/28 00:49:31;;;;;;;18.42;15.05;;;20.80;73.80;;;;;;5108141;28;20031;-73
2021/09/28 00:51:56;;;;;;;21.08;16.50;;;20.80;73.60;;;;;;5109519;28;20046;-71
2021/09/28 00:54:23;;;;;;;17.15;14.60;;;20.90;73.40;;;;;;5108092;28;20397;-72
2021/09/28 00:56:49;;;;;;;17.55;15.75;;;20.80;73.30;;;;;;5109816;28;20032;-71
2021/09/28 00:59:16;;;;;;;16.73;14.50;;;20.90;73.40;;;;;;5110646;28;20030;-73
2021/09/28 01:01:42;;;;;;;16.27;14.65;;;20.90;73.30;;;;;;5110702;27;20024;-70
2021/09/28 01:04:08;;;;;;;16.13;14.40;;;20.90;73.30;;;;;;5109321;28;20391;-70
2021/09/28 01:06:34;;;;;;;17.63;14.95;;;20.90;73.30;;;;;;5108423;28;20469;-71
2021/09/28 01:09:00;;;;;;;16.85;15.18;;;20.90;73.20;;;;;;5109520;28;20016;-73
2021/09/28 01:11:26;;;;;;;13.75;12.35;;;20.90;73.00;;;;;;5111102;28;20030;-71
2021/09/28 01:13:52;;;;;;;14.45;12.95;;;20.90;72.90;;;;;;5112667;28;20036;-73
2021/09/28 01:16:18;;;;;;;14.93;13.27;;;20.90;73.00;;;;;;5110937;28;20038;-70
2021/09/28 01:18:43;;;;;;;14.98;12.98;;;20.90;72.80;;;;;;5112236;28;20024;-73
2021/09/28 01:21:14;;;;;;;15.13;13.50;;;20.90;72.80;;;;;;5111742;28;20085;-74
2021/09/28 01:23:44;;;;;;;14.13;12.73;;;20.90;72.80;;;;;;5112216;28;20042;-72
2021/09/28 01:26:23;;;;;;;19.83;12.57;;;20.90;72.60;;;;;;5111624;28;20135;-73
2021/09/28 01:28:49;;;;;;;14.32;12.93;;;20.80;72.60;;;;;;5112111;28;20031;-74
2021/09/28 01:31:15;;;;;;;17.13;13.50;;;20.80;72.70;;;;;;5111359;28;20489;-74
2021/09/28 01:33:41;;;;;;;16.13;13.18;;;20.80;72.80;;;;;;5110817;28;20077;-74
2021/09/28 01:36:07;;;;;;;17.60;12.52;;;20.80;72.70;;;;;;5110328;28;20469;-73
2021/09/28 01:38:33;;;;;;;14.35;12.15;;;20.80;72.60;;;;;;5110132;28;20028;-73
2021/09/28 01:40:59;;;;;;;13.00;11.70;;;20.80;72.60;;;;;;5110150;28;20047;-67
2021/09/28 01:43:25;;;;;;;15.48;13.75;;;20.80;72.50;;;;;;5110868;28;20038;-74
2021/09/28 01:45:57;;;;;;;14.38;12.88;;;20.80;72.40;;;;;;5110530;28;20028;-75
2021/09/28 01:48:27;;;;;;;13.98;12.63;;;20.80;72.40;;;;;;5110088;28;20028;-75
2021/09/28 01:50:52;;;;;;;15.93;13.55;;;20.80;72.40;;;;;;5112233;28;20016;-76
2021/09/28 01:53:18;;;;;;;14.65;12.93;;;20.80;72.50;;;;;;5111605;28;20269;-76
2021/09/28 01:55:44;;;;;;;15.90;13.40;;;20.80;72.40;;;;;;5110772;28;20510;-74
2021/09/28 01:58:10;;;;;;;17.08;15.38;;;20.80;72.60;;;;;;5111499;28;20102;-73
2021/09/28 02:00:36;;;;;;;15.63;14.02;;;20.70;72.80;;;;;;5111458;28;20483;-74
2021/09/28 02:03:01;;;;;;;16.15;14.55;;;20.70;72.90;;;;;;5111488;28;20362;-68
2021/09/28 02:05:27;;;;;;;16.13;14.52;;;20.70;73.10;;;;;;5110962;28;20450;-75
2021/09/28 02:07:53;;;;;;;15.57;14.00;;;20.80;73.20;;;;;;5112201;28;20023;-75
2021/09/28 02:10:19;;;;;;;14.80;13.32;;;20.80;73.10;;;;;;5110434;28;20075;-76
2021/09/28 02:12:44;;;;;;;15.25;13.20;;;20.80;73.00;;;;;;5110288;28;20489;-75
2021/09/28 02:15:11;;;;;;;15.18;13.68;;;20.80;72.90;;;;;;5111289;28;20381;-75
2021/09/28 02:17:39;;;;;;;15.63;12.98;;;20.70;72.90;;;;;;5110467;28;20020;-75
2021/09/28 02:20:05;;;;;;;14.75;13.20;;;20.70;72.90;;;;;;5111118;28;20036;-73
2021/09/28 02:22:31;;;;;;;15.32;13.68;;;20.70;72.90;;;;;;5111493;28;20465;-75
2021/09/28 02:24:56;;;;;;;23.75;13.38;;;20.70;72.90;;;;;;5112044;28;20028;-74
2021/09/28 02:27:22;;;;;;;16.38;13.85;;;20.70;73.00;;;;;;5111189;28;20234;-73
2021/09/28 02:29:48;;;;;;;16.92;14.38;;;20.70;73.00;;;;;;5110296;28;20027;-73
2021/09/28 02:32:14;;;;;;;16.55;14.88;;;20.60;73.30;;;;;;5110207;28;20116;-73
2021/09/28 02:34:39;;;;;;;17.42;15.40;;;20.70;73.70;;;;;;5110023;28;20020;-72
2021/09/28 02:37:08;;;;;;;16.10;14.40;;;20.60;74.00;;;;;;5108671;28;20426;-74
2021/09/28 02:39:36;;;;;;;15.30;13.70;;;20.60;74.10;;;;;;5110798;28;20020;-74
2021/09/28 02:42:03;;;;;;;15.93;14.23;;;20.60;74.30;;;;;;5108746;28;20130;-68
2021/09/28 02:44:29;;;;;;;17.65;14.55;;;20.50;74.20;;;;;;5111819;28;20036;-75
2021/09/28 02:46:54;;;;;;;15.82;13.23;;;20.50;74.10;;;;;;5110220;28;20028;-75
2021/09/28 02:49:20;;;;;;;15.02;13.50;;;20.50;74.20;;;;;;5111220;28;20031;-74
2021/09/28 02:51:46;;;;;;;17.23;14.88;;;20.50;74.30;;;;;;5112084;28;20016;-75
2021/09/28 02:54:11;;;;;;;16.48;14.75;;;20.50;74.30;;;;;;5111760;28;20476;-74
2021/09/28 02:56:37;;;;;;;16.67;14.82;;;20.50;74.50;;;;;;5111467;28;20484;-74
2021/09/28 02:59:03;;;;;;;16.33;14.63;;;20.40;74.50;;;;;;5109632;28;20015;-68
2021/09/28 03:01:28;;;;;;;17.40;14.98;;;20.40;74.60;;;;;;5111271;28;20529;-73
2021/09/28 03:03:54;;;;;;;16.52;14.80;;;20.40;74.50;;;;;;5109780;28;20393;-75
2021/09/28 03:06:20;;;;;;;16.25;14.65;;;20.40;74.50;;;;;;5111415;28;20112;-76
2021/09/28 03:08:45;;;;;;;16.05;14.38;;;20.40;74.40;;;;;;5114345;28;20046;-75
2021/09/28 03:11:11;;;;;;;17.25;14.85;;;20.30;74.40;;;;;;5113410;28;20076;-75
2021/09/28 03:13:38;;;;;;;16.92;15.07;;;20.30;74.50;;;;;;5114131;28;20044;-75
2021/09/28 03:16:03;;;;;;;16.23;14.63;;;20.30;74.50;;;;;;5115043;27;20112;-68
2021/09/28 03:18:29;;;;;;;16.17;14.48;;;20.30;75.20;;;;;;5114819;28;20028;-76
2021/09/28 03:20:55;;;;;;;18.48;15.25;;;20.30;74.40;;;;;;5115144;28;20119;-74
2021/09/28 03:23:21;;;;;;;17.67;15.52;;;20.30;74.30;;;;;;5113889;28;20434;-75
2021/09/28 03:25:47;;;;;;;16.77;15.05;;;20.40;74.20;;;;;;5115196;28;20023;-74
2021/09/28 03:28:13;;;;;;;16.30;14.50;;;20.30;74.00;;;;;;5114446;28;20030;-74
2021/09/28 03:30:39;;;;;;;15.80;14.27;;;20.30;74.00;;;;;;5114517;27;20072;-74
2021/09/28 03:33:05;;;;;;;17.10;14.20;;;20.30;73.90;;;;;;5096090;28;20031;-68
2021/09/28 03:35:31;;;;;;;16.00;14.18;;;20.30;73.90;;;;;;5114532;28;20031;-74
2021/09/28 03:37:57;;;;;;;16.73;14.40;;;20.30;73.80;;;;;;5113593;28;20103;-74
2021/09/28 03:40:25;;;;;;;16.90;14.40;;;20.30;73.80;;;;;;5114389;28;20434;-74
2021/09/28 03:42:51;;;;;;;15.40;13.80;;;20.30;73.70;;;;;;5114782;28;20050;-74
2021/09/28 03:45:17;;;;;;;15.48;13.88;;;20.30;73.70;;;;;;5114085;28;20469;-75
2021/09/28 03:47:43;;;;;;;15.68;13.93;;;20.20;73.60;;;;;;5114616;27;20076;-75
2021/09/28 03:50:09;;;;;;;15.50;13.93;;;20.20;73.60;;;;;;5112954;28;20039;-73
2021/09/28 03:52:35;;;;;;;15.30;13.57;;;20.20;73.50;;;;;;5114384;28;20477;-72
2021/09/28 03:55:01;;;;;;;14.48;12.55;;;20.20;73.40;;;;;;5114724;28;20106;-75
2021/09/28 03:57:27;;;;;;;15.43;12.82;;;20.20;73.40;;;;;;5112843;28;20228;-76
2021/09/28 03:59:53;;;;;;;14.52;12.85;;;20.30;73.40;;;;;;5114873;28;20106;-75
2021/09/28 04:02:19;;;;;;;16.80;13.75;;;20.30;73.20;;;;;;5114119;27;20112;-76
2021/09/28 04:04:45;;;;;;;15.20;13.55;;;20.20;73.10;;;;;;5114296;28;20066;-74
2021/09/28 04:07:10;;;;;;;18.45;14.10;;;20.20;73.10;;;;;;5114026;27;20035;-76
2021/09/28 04:09:36;;;;;;;15.13;13.63;;;20.20;73.00;;;;;;5114821;28;20028;-75
2021/09/28 04:12:02;;;;;;;14.23;12.75;;;20.20;73.00;;;;;;5113554;28;20027;-74
2021/09/28 04:14:28;;;;;;;14.65;13.07;;;20.30;73.00;;;;;;5114070;28;20623;-74
2021/09/28 04:16:54;;;;;;;16.08;13.48;;;20.30;72.90;;;;;;5114947;28;20020;-74
2021/09/28 04:19:19;;;;;;;15.60;13.27;;;20.30;72.80;;;;;;5113544;28;20030;-75
2021/09/28 04:21:45;;;;;;;14.60;12.75;;;20.30;72.70;;;;;;5114205;28;20020;-74
2021/09/28 04:24:12;;;;;;;14.65;12.50;;;20.30;72.50;;;;;;5112222;28;20024;-72
2021/09/28 04:26:39;;;;;;;13.75;12.35;;;20.30;72.30;;;;;;5113081;28;20024;-75
2021/09/28 04:29:06;;;;;;;13.68;11.98;;;20.30;72.20;;;;;;5113807;28;20031;-75
2021/09/28 04:34:15;;;;;;;;;;;20.40;72.10;;;;;;5114486;28;20061;-75
2021/09/28 04:36:41;;;;;;;14.15;12.63;;;20.30;72.00;;;;;;5117588;28;19983;-75
2021/09/28 04:39:07;;;;;;;14.38;12.65;;;20.30;72.00;;;;;;5114390;28;20385;-76
2021/09/28 04:41:33;;;;;;;14.70;12.27;;;20.30;72.00;;;;;;5113689;28;20054;-77
2021/09/28 04:43:59;;;;;;;13.30;11.90;;;20.30;71.90;;;;;;5112094;28;20019;-75
2021/09/28 04:46:25;;;;;;;13.43;12.02;;;20.30;71.90;;;;;;5113690;28;20099;-75
2021/09/28 04:48:52;;;;;;;13.52;12.13;;;20.30;71.80;;;;;;5114071;28;20068;-75
2021/09/28 04:51:17;;;;;;;15.18;12.30;;;20.30;71.80;;;;;;5112910;28;20019;-75
2021/09/28 04:53:43;;;;;;;14.48;12.60;;;20.20;71.70;;;;;;5113538;28;20370;-75
2021/09/28 04:56:10;;;;;;;14.88;12.05;;;20.20;71.80;;;;;;5113142;28;20032;-68
2021/09/28 04:58:36;;;;;;;16.90;12.48;;;20.10;71.90;;;;;;5113717;28;20038;-73
2021/09/28 05:01:02;;;;;;;14.82;12.07;;;20.10;72.00;;;;;;5114120;28;20441;-75
2021/09/28 05:03:28;;;;;;;15.45;12.13;;;20.10;71.90;;;;;;5111746;28;20031;-76
2021/09/28 05:05:54;;;;;;;16.20;12.80;;;20.10;71.70;;;;;;5112731;28;20471;-77
2021/09/28 05:08:19;;;;;;;15.57;12.77;;;20.10;71.80;;;;;;5113709;28;20035;-75
2021/09/28 05:10:47;;;;;;;16.98;13.30;;;20.00;71.90;;;;;;5113450;28;20559;-74
2021/09/28 05:13:13;;;;;;;16.13;12.50;;;20.00;71.90;;;;;;5112851;28;20042;-67
2021/09/28 05:15:39;;;;;;;13.77;12.15;;;20.00;71.90;;;;;;5111667;28;20102;-74
2021/09/28 05:18:05;;;;;;;15.13;12.68;;;19.90;72.00;;;;;;5113664;28;20028;-74
2021/09/28 05:20:32;;;;;;;17.35;13.43;;;19.90;72.10;;;;;;5111205;28;20389;-73
2021/09/28 05:22:59;;;;;;;16.52;13.82;;;20.00;72.10;;;;;;5111652;28;20028;-71
2021/09/28 05:25:27;;;;;;;19.50;14.00;;;20.00;72.00;;;;;;5110639;28;20111;-72
2021/09/28 05:27:53;;;;;;;16.83;13.57;;;20.10;71.90;;;;;;5113051;28;20031;-74
2021/09/28 05:30:18;;;;;;;17.05;14.63;;;20.10;71.80;;;;;;5093171;28;20032;-71
2021/09/28 05:32:44;;;;;;;16.98;14.13;;;20.10;71.70;;;;;;5110959;28;20031;-73
2021/09/28 05:35:11;;;;;;;18.73;13.63;;;20.10;71.80;;;;;;5112435;28;20084;-73
2021/09/28 05:37:37;;;;;;;19.15;14.63;;;20.10;71.70;;;;;;5111813;28;20031;-74
2021/09/28 05:40:04;;;;;;;18.65;13.98;;;20.10;71.90;;;;;;5112421;28;20353;-72
2021/09/28 05:42:30;;;;;;;16.70;14.75;;;20.10;72.00;;;;;;5112110;28;20036;-72
2021/09/28 05:47:41;;;;;;;17.50;14.13;;;20.20;72.10;;;;;;5112440;28;20050;-72
2021/09/28 05:50:07;;;;;;;20.65;15.82;;;20.10;71.90;;;;;;5111565;28;20023;-72
2021/09/28 05:52:44;;;;;;;19.25;13.98;;;20.20;72.10;;;;;;5110277;28;20065;-73
2021/09/28 05:55:11;;;;;;;16.80;14.32;;;20.20;72.10;;;;;;5112481;28;20473;-73
2021/09/28 05:57:36;;;;;;;22.05;14.43;;;20.20;72.10;;;;;;5112017;28;20452;-71
2021/09/28 06:00:06;;;;;;;20.77;14.63;;;20.30;71.90;;;;;;5112332;28;20047;-72
2021/09/28 06:02:33;;;;;;;22.33;15.05;;;20.40;71.80;;;;;;5111947;28;20393;-74
2021/09/28 06:05:00;;;;;;;17.98;14.63;;;20.40;71.50;;;;;;5112517;27;20020;-73
2021/09/28 06:07:31;;;;;;;20.85;13.82;;;20.40;71.30;;;;;;5111209;28;20072;-73
2021/09/28 06:09:59;;;;;;;18.83;13.75;;;20.40;71.00;;;;;;5111773;28;20023;-72
2021/09/28 06:12:25;;;;;;;17.50;13.70;;;20.50;70.90;;;;;;5109983;28;20481;-73
2021/09/28 06:14:51;;;;;;;14.55;12.98;;;20.50;70.80;;;;;;5112170;28;20031;-74
2021/09/28 06:17:18;;;;;;;19.10;14.18;;;20.40;70.70;;;;;;5110445;28;20028;-67
2021/09/28 06:19:46;;;;;;;23.20;14.93;;;20.50;70.70;;;;;;5111313;28;20438;-73
2021/09/28 06:22:13;;;;;;;20.45;15.02;;;20.40;70.70;;;;;;5110654;28;20028;-71
2021/09/28 06:24:38;;;;;;;17.70;14.50;;;20.40;70.60;;;;;;5110849;28;20024;-72
2021/09/28 06:27:08;;;;;;;18.00;14.23;;;20.50;70.80;;;;;;5111412;28;20066;-72
2021/09/28 06:29:34;;;;;;;15.07;12.35;;;20.50;70.70;;;;;;5110208;28;20051;-72
2021/09/28 06:32:00;;;;;;;18.88;13.13;;;20.50;70.30;;;;;;5110318;28;20024;-73
2021/09/28 06:34:26;;;;;;;19.08;13.73;;;20.50;70.30;;;;;;5111443;28;20023;-72
2021/09/28 06:36:52;;;;;;;19.48;14.30;;;20.50;70.20;;;;;;5111011;28;20030;-72
2021/09/28 06:39:18;;;;;;;15.02;13.02;;;20.50;70.20;;;;;;5110505;28;20445;-67
2021/09/28 06:41:44;;;;;;;17.08;12.85;;;20.60;70.10;;;;;;5112615;28;20039;-72
2021/09/28 06:44:10;;;;;;;16.38;13.00;;;20.50;69.90;;;;;;5116006;28;20084;-72
2021/09/28 06:46:36;;;;;;;16.33;13.13;;;20.50;69.60;;;;;;5114975;28;20469;-71
2021/09/28 06:49:02;;;;;;;16.15;12.85;;;20.60;69.70;;;;;;5116403;28;20097;-71
2021/09/28 06:51:29;;;;;;;17.15;12.68;;;20.60;69.40;;;;;;5115176;28;20419;-70
2021/09/28 06:53:55;;;;;;;27.88;15.02;;;20.60;69.10;;;;;;5115156;28;20036;-71
2021/09/28 06:56:21;;;;;;;20.58;14.02;;;20.70;69.10;;;;;;5113871;28;20107;-67
2021/09/28 06:58:48;;;;;;;15.07;12.60;;;20.70;69.10;;;;;;5114220;28;20031;-69
2021/09/28 07:01:14;;;;;;;17.40;12.65;;;20.70;68.90;;;;;;5113495;27;20067;-67
2021/09/28 07:03:40;;;;;;;15.88;13.00;;;20.70;68.70;;;;;;5106792;28;20024;-66
2021/09/28 07:06:07;;;;;;;13.95;12.25;;;20.70;68.60;;;;;;5088929;28;20020;-66
2021/09/28 07:08:33;;;;;;;14.68;12.40;;;20.70;68.40;;;;;;5108286;28;20023;-66
2021/09/28 07:10:59;;;;;;;18.98;11.73;;;20.80;68.50;;;;;;5107870;27;20028;-68
2021/09/28 07:13:25;;;;;;;15.63;11.52;;;20.80;68.30;;;;;;5106523;28;20043;-65
2021/09/28 07:15:51;;;;;;;14.50;11.40;;;20.90;68.30;;;;;;5105755;28;20036;-69
2021/09/28 07:18:17;;;;;;;17.63;11.85;;;20.90;68.20;;;;;;5108108;28;20019;-69
2021/09/28 07:20:45;;;;;;;17.20;12.30;;;21.00;68.00;;;;;;5105062;28;20020;-68
2021/09/28 07:23:12;;;;;;;13.63;11.02;;;21.00;67.70;;;;;;5106377;28;20023;-67
2021/09/28 07:25:39;;;;;;;19.30;13.07;;;21.00;67.80;;;;;;5105545;28;20531;-67
2021/09/28 07:28:05;;;;;;;22.25;12.40;;;21.10;67.40;;;;;;5106588;28;20066;-69
2021/09/28 07:30:33;;;;;;;13.82;12.27;;;21.10;67.50;;;;;;5104425;28;20023;-68
2021/09/28 07:33:01;;;;;;;17.08;11.63;;;21.10;67.00;;;;;;5107507;28;20020;-67
2021/09/28 07:35:28;;;;;;;15.45;11.60;;;21.20;67.00;;;;;;5104554;28;20262;-66
2021/09/28 07:37:54;;;;;;;18.27;11.88;;;21.20;66.70;;;;;;5105408;28;20016;-66
2021/09/28 07:40:21;;;;;;;14.88;11.45;;;21.30;66.50;;;;;;5106318;28;20080;-65
2021/09/28 07:42:47;;;;;;;16.80;11.88;;;21.40;66.30;;;;;;5106618;28;20027;-66
2021/09/28 07:45:14;;;;;;;11.80;10.57;;;21.40;66.30;;;;;;5105026;28;20077;-66
2021/09/28 07:47:40;;;;;;;16.95;10.57;;;21.40;66.10;;;;;;5106439;28;20181;-67
2021/09/28 07:50:08;;;;;;;14.57;10.85;;;21.50;65.90;;;;;;5105391;28;20091;-67
2021/09/28 07:52:34;;;;;;;15.35;11.23;;;21.50;65.80;;;;;;5103880;28;20396;-67
2021/09/28 07:55:00;;;;;;;14.68;11.18;;;21.50;65.60;;;;;;5106650;28;20026;-67
2021/09/28 07:57:26;;;;;;;20.40;10.93;;;21.60;65.60;;;;;;5097447;28;20020;-64
2021/09/28 07:59:53;;;;;;;13.35;10.43;;;21.60;65.60;;;;;;5105591;28;20084;-63
2021/09/28 08:02:20;;;;;;;15.30;11.02;;;21.60;65.30;;;;;;5104843;28;20049;-66
2021/09/28 08:04:47;;;;;;;16.25;11.75;;;21.80;65.10;;;;;;5105023;28;20028;-66
2021/09/28 08:07:15;;;;;;;12.70;10.43;;;21.90;64.90;;;;;;5106381;28;20026;-68
2021/09/28 08:09:41;;;;;;;14.63;11.30;;;22.10;64.50;;;;;;5104864;28;20213;-70
2021/09/28 08:12:08;;;;;;;17.65;11.13;;;22.30;64.00;;;;;;5105105;27;20028;-69
2021/09/28 08:14:34;;;;;;;17.73;11.80;;;22.60;63.10;;;;;;5104083;28;20468;-68
2021/09/28 08:17:00;;;;;;;17.42;11.45;;;23.20;62.00;;;;;;5106372;28;20020;-68
2021/09/28 08:19:26;;;;;;;17.30;11.43;;;23.40;60.70;;;;;;5105386;28;20020;-67
2021/09/28 08:21:51;;;;;;;12.57;10.15;;;23.50;60.00;;;;;;5103785;28;20046;-68
2021/09/28 08:24:17;;;;;;;16.67;11.30;;;23.60;60.00;;;;;;5105917;28;20422;-69
2021/09/28 08:29:30;;;;;;;13.13;11.50;;;23.70;59.20;;;;;;5105324;28;20022;-68
2021/09/28 08:31:56;;;;;;;15.35;11.98;;;23.70;59.40;;;;;;5104769;28;20066;-66
2021/09/28 08:34:22;;;;;;;15.77;11.13;;;23.60;59.00;;;;;;5104105;28;20027;-67
2021/09/28 08:36:49;;;;;;;16.42;12.02;;;23.50;59.20;;;;;;5106078;28;20031;-68
2021/09/28 08:39:16;;;;;;;14.25;10.07;;;23.40;59.50;;;;;;5106361;28;20118;-67
2021/09/28 08:41:45;;;;;;;16.77;10.95;;;23.40;59.70;;;;;;5105234;28;20085;-67
2021/09/28 08:44:12;;;;;;;12.60;10.05;;;23.30;59.70;;;;;;5105297;28;20024;-67
2021/09/28 08:46:39;;;;;;;13.98;10.95;;;23.50;59.90;;;;;;5105668;28;20123;-69
2021/09/28 08:49:05;;;;;;;11.60;10.40;;;23.50;59.70;;;;;;5105713;28;20038;-68
2021/09/28 08:51:32;;;;;;;19.40;12.95;;;23.60;59.60;;;;;;5104506;28;20106;-66
2021/09/28 08:53:58;;;;;;;15.32;11.80;;;23.60;59.50;;;;;;5105372;28;20031;-67
2021/09/28 08:56:25;;;;;;;15.25;12.10;;;23.60;59.70;;;;;;5105750;28;20411;-66
2021/09/28 08:59:01;;;;;;;15.07;13.48;;;23.60;59.50;;;;;;5103913;28;20281;-66
2021/09/28 09:01:29;;;;;;;19.88;14.35;;;23.60;59.30;;;;;;5104656;28;20020;-66
2021/09/28 09:04:13;;;;;;;14.98;13.13;;;23.70;59.80;;;;;;5105249;28;20035;-68
2021/09/28 09:06:39;;;;;;;13.43;12.13;;;23.70;59.60;;;;;;5103779;27;20019;-68
2021/09/28 09:09:05;;;;;;;11.88;10.65;;;23.70;59.70;;;;;;5103478;28;20335;-73
2021/09/28 09:11:37;;;;;;;32.05;17.77;;;23.80;59.70;;;;;;5103175;28;20101;-65
2021/09/28 09:14:20;;;;;;;19.58;12.57;;;23.80;59.50;;;;;;5103564;28;20035;-64
2021/09/28 09:16:48;;;;;;;14.02;11.68;;;23.80;59.50;;;;;;5104081;28;20035;-69
2021/09/28 09:19:16;;;;;;;20.35;11.90;;;23.80;59.60;;;;;;5105053;28;20037;-63
2021/09/28 09:22:02;;;;;;;14.25;11.77;;;23.70;59.50;;;;;;5102255;28;20024;-67
2021/09/28 09:24:44;;;;;;;15.95;11.45;;;23.70;59.60;;;;;;5102622;28;20088;-72
2021/09/28 09:27:15;;;;;;;14.63;12.30;;;23.70;59.60;;;;;;5104058;28;20024;-67
2021/09/28 09:29:42;;;;;;;14.65;11.10;;;23.60;59.60;;;;;;5104723;28;20057;-66
2021/09/28 09:32:08;;;;;;;16.15;12.20;;;23.70;59.70;;;;;;5102250;28;20043;-70
2021/09/28 09:34:34;;;;;;;19.13;12.48;;;23.70;59.70;;;;;;5103362;28;20028;-68
2021/09/28 09:37:10;;;;;;;17.10;12.55;;;23.70;59.60;;;;;;5101698;28;20058;-67
2021/09/28 09:39:47;;;;;;;15.10;11.80;;;23.70;59.70;;;;;;5099952;28;20036;-66
2021/09/28 09:42:13;;;;;;;14.88;12.27;;;23.80;59.70;;;;;;5101866;28;20079;-66
2021/09/28 09:44:41;;;;;;;22.00;14.23;;;23.80;59.50;;;;;;5104292;28;20047;-70
2021/09/28 09:47:28;;;;;;;16.77;12.77;;;23.90;59.60;;;;;;5103057;28;20107;-65
2021/09/28 09:50:15;;;;;;;17.63;13.45;;;24.00;59.40;;;;;;5103474;28;20035;-66
2021/09/28 09:52:59;;;;;;;22.90;12.90;;;24.10;59.40;;;;;;5103178;28;20050;-65
2021/09/28 09:55:31;;;;;;;12.07;10.75;;;24.20;59.10;;;;;;5102680;28;20281;-66
2021/09/28 09:57:58;;;;;;;19.35;12.10;;;24.20;58.90;;;;;;5101582;28;20111;-66
2021/09/28 10:00:24;;;;;;;27.63;12.73;;;24.30;58.50;;;;;;5104308;28;20192;-66
2021/09/28 10:02:50;;;;;;;14.48;10.98;;;24.40;58.20;;;;;;5101072;28;20024;-68
2021/09/28 10:05:17;;;;;;;13.23;10.70;;;24.50;58.00;;;;;;5103328;28;20019;-67
2021/09/28 10:07:43;;;;;;;12.50;9.30;;;24.40;57.60;;;;;;5103965;28;20015;-70
2021/09/28 10:10:15;;;;;;;16.42;10.80;;;24.50;57.80;;;;;;5104720;28;20039;-69
2021/09/28 10:12:41;;;;;;;14.68;10.25;;;24.50;57.80;;;;;;5103043;28;20032;-70
2021/09/28 10:15:15;;;;;;;12.30;9.60;;;24.60;57.50;;;;;;5103723;28;20027;-68
2021/09/28 10:17:43;;;;;;;16.65;10.70;;;24.60;57.40;;;;;;5110344;28;20022;-73
2021/09/28 10:20:21;;;;;;;10.57;8.80;;;24.70;57.30;;;;;;5109860;28;20410;-75
2021/09/28 10:22:53;;;;;;;11.05;8.80;;;24.70;56.90;;;;;;5108336;28;20128;-71
2021/09/28 10:25:31;;;;;;;14.98;10.57;;;24.80;56.80;;;;;;5110003;28;20461;-71
2021/09/28 10:28:03;;;;;;;12.05;8.85;;;24.80;56.40;;;;;;5107784;28;20579;-72
2021/09/28 10:30:32;;;;;;;12.63;9.98;;;24.90;56.10;;;;;;5106396;28;20528;-66
2021/09/28 10:33:06;;;;;;;13.20;9.90;;;24.90;56.20;;;;;;5109501;28;20027;-67
2021/09/28 10:35:34;;;;;;;13.65;9.05;;;25.00;56.10;;;;;;5107225;28;20031;-69
2021/09/28 10:38:07;;;;;;;14.45;9.23;;;25.00;55.70;;;;;;5106953;28;20027;-72
2021/09/28 10:40:33;;;;;;;15.60;10.60;;;25.10;55.60;;;;;;5105089;28;20046;-60
2021/09/28 10:43:24;;;;;;;11.43;10.13;;;25.20;55.90;;;;;;5106646;28;20114;-67
2021/09/28 10:45:50;;;;;;;11.32;8.50;;;25.30;55.30;;;;;;5104235;28;20091;-69
2021/09/28 10:48:28;;;;;;;14.75;9.25;;;25.30;55.30;;;;;;5108493;28;20020;-69
2021/09/28 10:51:23;;;;;;;13.13;9.23;;;25.30;55.20;;;;;;5104745;28;20125;-66
2021/09/28 10:53:54;;;;;;;16.67;10.23;;;25.30;54.80;;;;;;5046562;28;20036;-69
2021/09/28 10:56:21;;;;;;;11.57;9.32;;;25.50;54.80;;;;;;5063727;28;20024;-67
2021/09/28 10:58:51;;;;;;;13.18;9.48;;;25.60;54.60;;;;;;5030130;28;20257;-66
2021/09/28 11:01:18;;;;;;;14.13;8.75;;;25.60;54.50;;;;;;5063915;28;20280;-67
2021/09/28 11:04:10;;;;;;;9.63;8.63;;;25.70;54.30;;;;;;5062037;28;20151;-68
2021/09/28 11:06:48;;;;;;;12.85;9.75;;;25.90;53.90;;;;;;5053608;28;20029;-67
2021/09/28 11:09:16;;;;;;;11.98;9.15;;;26.20;53.00;;;;;;5047744;28;20037;-69
2021/09/28 11:11:43;;;;;;;11.25;8.73;;;26.30;53.00;;;;;;5045851;28;20033;-67
2021/09/28 11:14:10;;;;;;;9.10;7.90;;;26.20;52.80;;;;;;5063889;28;20137;-67
2021/09/28 11:16:51;;;;;;;13.88;9.35;;;26.10;52.80;;;;;;5046450;28;20148;-67
2021/09/28 11:19:17;;;;;;;9.75;8.05;;;26.00;53.00;;;;;;5046902;28;20094;-67
2021/09/28 11:21:45;;;;;;;12.60;9.23;;;26.20;53.00;;;;;;5062764;28;20467;-68
2021/09/28 11:24:13;;;;;;;11.68;9.25;;;26.20;52.60;;;;;;5063837;28;20147;-67
2021/09/28 11:26:42;;;;;;;9.60;8.57;;;26.20;52.10;;;;;;5046413;28;20032;-68
2021/09/28 11:29:11;;;;;;;9.10;8.18;;;26.20;52.40;;;;;;5063966;28;20101;-67
2021/09/28 11:31:39;;;;;;;12.88;9.68;;;26.20;52.30;;;;;;5106445;28;20060;-66
2021/09/28 11:34:06;;;;;;;12.00;8.45;;;26.30;52.40;;;;;;5106905;28;20034;-67
2021/09/28 11:36:37;;;;;;;11.20;8.43;;;27.10;51.80;;;;;;5106291;28;20219;-66
2021/09/28 11:39:05;;;;;;;10.27;7.03;;;27.60;50.30;;;;;;5106967;27;20055;-67
2021/09/28 11:41:35;;;;;;;13.38;7.47;;;27.70;49.60;;;;;;5105152;28;20067;-67
2021/09/28 11:44:02;;;;;;;7.75;6.88;;;27.70;49.20;;;;;;5106494;28;20031;-67
2021/09/28 11:46:30;;;;;;;8.75;6.68;;;27.60;49.20;;;;;;5106402;28;20482;-71
2021/09/28 11:49:00;;;;;;;7.20;6.50;;;27.60;48.40;;;;;;5105624;28;20031;-66
2021/09/28 11:51:32;;;;;;;8.38;7.18;;;27.60;48.00;;;;;;5105426;28;20038;-66
2021/09/28 11:54:04;;;;;;;8.43;7.38;;;27.60;48.20;;;;;;5104990;28;20214;-68
2021/09/28 11:56:33;;;;;;;12.48;7.40;;;27.70;48.70;;;;;;5105317;28;20055;-71
2021/09/28 11:58:59;;;;;;;11.60;6.95;;;27.80;48.80;;;;;;5106463;27;20016;-67
2021/09/28 12:01:27;;;;;;;11.85;7.40;;;27.90;48.20;;;;;;5087396;28;20024;-67
2021/09/28 12:09:45;;;;;;;12.52;6.38;;;28.00;47.30;;;;;;5061845;28;20119;-67
2021/09/28 12:12:14;;;;;;;6.68;5.70;;;28.00;47.00;;;;;;5062197;28;20078;-68
2021/09/28 12:14:47;;;;;;;11.02;6.20;;;28.10;46.90;;;;;;5062498;28;20041;-66
2021/09/28 12:17:14;;;;;;;9.70;7.15;;;27.90;46.50;;;;;;5062507;28;20074;-67
2021/09/28 12:19:55;;;;;;;9.68;6.47;;;27.80;47.40;;;;;;5061716;28;20033;-67
2021/09/28 12:22:27;;;;;;;17.63;6.70;;;27.70;47.70;;;;;;5046030;28;20029;-67
2021/09/28 12:24:54;;;;;;;12.32;7.50;;;27.90;47.40;;;;;;5052064;28;20166;-68
2021/09/28 12:27:22;;;;;;;15.05;6.72;;;28.00;47.20;;;;;;5070278;28;20075;-67
2021/09/28 12:29:53;;;;;;;13.52;7.07;;;28.20;47.00;;;;;;5069820;28;20075;-67
2021/09/28 12:32:32;;;;;;;10.70;6.35;;;28.20;46.50;;;;;;5053776;28;20045;-68
2021/09/28 12:35:00;;;;;;;24.33;9.05;;;28.10;46.20;;;;;;5053748;28;20033;-69
2021/09/28 12:37:27;;;;;;;26.15;8.50;;;28.00;46.50;;;;;;5070411;28;20029;-68
2021/09/28 12:40:09;;;;;;;28.67;8.82;;;27.80;46.80;;;;;;5069063;28;20382;-67
2021/09/28 12:42:40;;;;;;;15.68;8.10;;;27.60;47.30;;;;;;5052776;28;20033;-69
2021/09/28 12:45:06;;;;;;;23.13;9.40;;;27.40;47.90;;;;;;5053312;28;20024;-66
2021/09/28 12:47:35;;;;;;;18.88;8.10;;;27.30;48.80;;;;;;5106176;28;20041;-70